Arroyo, Texas
Current Conditions -  °F | °C
As of 8:52 PM on Monday 26 Jan 2015 (Local Time) from KHRL Reporting Station
Clear Clear  
Wind Chill: 57°   Ceiling: Unl
Heat Index: 57°   Visibility: 10mi
Dew Point: 45°   Wind: 6mph
Humidity: 64%   Direction: 170°S
Pressure: 30.24"   Gusts: NA
Location:  26.2089°N, 97.6849°W
Report Text: KHRL 270252Z 17005KT 10SM CLR 14/07 A3024 RMK AO2 SLP241 T01390072 53015
Loading
Personal Weather Stations






























Interactive Weather Map New forecast layout! Learn more

10-Day Weather Forecast

Advertisements
Track Severe Weather on mobile